Time;durP1;ratioP1;P1;durP2;ratioP2;P2;SDS_P1;SDS_P2;PMS_P1;PMS_P2;Temp;Humidity;BMP_temperature;BMP_pressure;BME280_temperature;BME280_humidity;BME280_pressure;Samples;Min_cycle;Max_cycle;Signal;HPM_P1;HPM_P2
2021/11/13 00:01:40;;;;;;;61.40;30.40;;;;;;;2.36;79.19;100359.20;105907;1322;22441;-70
2021/11/13 00:04:08;;;;;;;56.70;29.30;;;;;;;2.34;79.26;100359.22;105729;1322;140259;-70
2021/11/13 00:06:36;;;;;;;59.10;29.50;;;;;;;2.31;79.17;100354.45;105796;1322;22467;-70
2021/11/13 00:09:04;;;;;;;55.20;28.80;;;;;;;2.28;78.82;100358.53;105803;1322;138673;-70
2021/11/13 00:11:33;;;;;;;57.70;29.20;;;;;;;2.23;78.69;100358.77;105928;1322;22436;-70
2021/11/13 00:14:02;;;;;;;65.70;30.20;;;;;;;2.18;78.56;100357.92;105887;1322;22467;-70
2021/11/13 00:16:33;;;;;;;68.00;32.50;;;;;;;2.15;78.65;100360.75;105822;1322;138512;-69
2021/11/13 00:19:01;;;;;;;67.20;32.20;;;;;;;2.10;78.78;100360.85;105323;1323;22555;-70
2021/11/13 00:21:30;;;;;;;64.90;30.90;;;;;;;2.06;78.54;100360.14;105689;1322;138467;-70
2021/11/13 00:23:57;;;;;;;64.50;32.00;;;;;;;2.00;78.23;100358.70;105949;1323;22546;-70
2021/11/13 00:26:25;;;;;;;55.30;29.30;;;;;;;1.97;78.34;100359.51;106072;1316;138988;-70
2021/11/13 00:28:55;;;;;;;60.40;29.60;;;;;;;1.93;78.88;100365.23;106178;1316;22485;-70
2021/11/13 00:31:23;;;;;;;53.40;29.00;;;;;;;1.90;78.61;100369.23;106204;1316;23500;-70
2021/11/13 00:33:51;;;;;;;60.40;29.20;;;;;;;1.88;78.73;100370.93;106045;1316;138135;-70
2021/11/13 00:36:19;;;;;;;53.20;27.20;;;;;;;1.86;78.95;100370.38;106196;1316;22566;-70
2021/11/13 00:38:47;;;;;;;57.30;28.30;;;;;;;1.84;78.97;100366.08;106043;1316;138457;-70
2021/11/13 00:41:17;;;;;;;57.90;27.10;;;;;;;1.79;78.78;100371.61;106101;1316;22434;-69
2021/11/13 00:43:45;;;;;;;52.30;27.80;;;;;;;1.74;78.75;100374.45;106144;1320;22474;-68
2021/11/13 00:46:14;;;;;;;58.00;29.70;;;;;;;1.68;78.60;100367.91;106053;1316;139281;-68
2021/11/13 00:48:42;;;;;;;49.40;26.70;;;;;;;1.64;78.33;100377.10;106028;1319;23574;-68
2021/11/13 00:51:10;;;;;;;47.30;25.50;;;;;;;1.58;78.11;100376.98;105776;1316;139275;-68
2021/11/13 00:53:38;;;;;;;51.40;25.00;;;;;;;1.52;77.90;100376.48;106105;1316;22552;-68
2021/11/13 00:56:08;;;;;;;46.60;25.60;;;;;;;1.46;78.05;100380.14;106174;1316;22277;-68
2021/11/13 00:58:36;;;;;;;49.50;28.10;;;;;;;1.42;77.92;100381.86;106050;1316;138229;-68
2021/11/13 01:01:05;;;;;;;51.90;26.70;;;;;;;1.40;78.05;100384.59;106167;1316;24335;-68
2021/11/13 01:03:33;;;;;;;45.20;24.90;;;;;;;1.39;78.62;100380.40;106113;1316;138032;-68
2021/11/13 01:06:02;;;;;;;47.30;25.30;;;;;;;1.36;78.34;100378.64;106183;1316;22501;-68
2021/11/13 01:08:31;;;;;;;46.40;26.00;;;;;;;1.30;78.09;100372.86;106080;1319;139543;-68
2021/11/13 01:11:19;;;;;;;56.20;27.20;;;;;;;1.29;78.35;100380.23;106227;1316;22419;-70
2021/11/13 01:13:48;;;;;;;51.60;28.20;;;;;;;1.26;78.47;100380.32;105888;1316;23207;-70
2021/11/13 01:16:36;;;;;;;;;;;;;;;1.24;78.66;100377.30;106050;1316;138965;-69
2021/11/13 01:19:04;;;;;;;45.70;25.90;;;;;;;1.23;78.50;100378.95;106141;1318;22392;-69
2021/11/13 01:21:34;;;;;;;54.00;26.70;;;;;;;1.20;78.57;100377.98;105716;1320;139369;-69
2021/11/13 01:24:15;;;;;;;55.10;26.80;;;;;;;1.17;78.36;100374.77;106234;1318;23286;-69
2021/11/13 01:26:43;;;;;;;56.60;29.40;;;;;;;1.15;78.20;100376.49;105911;1316;138867;-69
2021/11/13 01:29:11;;;;;;;59.30;31.30;;;;;;;1.13;78.51;100381.70;106217;1316;23513;-69
2021/11/13 01:31:59;;;;;;;55.90;28.00;;;;;;;1.12;78.79;100371.94;106194;1316;22439;-69
2021/11/13 01:34:30;;;;;;;58.10;30.30;;;;;;;1.12;78.63;100367.71;106026;1319;138340;-69
2021/11/13 01:36:59;;;;;;;64.30;29.90;;;;;;;1.10;78.75;100370.04;106158;1316;22515;-69
2021/11/13 01:39:27;;;;;;;60.30;29.30;;;;;;;1.08;78.86;100375.98;106099;1316;138467;-70
2021/11/13 01:41:55;;;;;;;56.20;30.70;;;;;;;1.05;78.42;100375.55;106241;1316;22517;-69
2021/11/13 01:44:24;;;;;;;59.50;30.70;;;;;;;1.01;78.23;100369.94;105955;1318;140407;-69
2021/11/13 01:46:52;;;;;;;58.80;30.30;;;;;;;0.98;78.52;100371.75;106294;1316;22480;-69
2021/11/13 01:49:23;;;;;;;59.90;29.60;;;;;;;0.97;78.43;100374.97;105903;1320;23157;-69
2021/11/13 01:52:11;;;;;;;;;;;;;;;0.94;78.43;100374.73;106241;1316;138074;-70
2021/11/13 01:54:40;;;;;;;48.30;23.80;;;;;;;0.88;78.44;100374.73;106223;1316;22489;-70
2021/11/13 01:57:11;;;;;;;51.30;28.40;;;;;;;0.85;78.32;100381.00;106211;1316;138419;-69
2021/11/13 01:59:40;;;;;;;50.20;27.80;;;;;;;0.79;78.34;100383.96;106324;1316;24032;-69
2021/11/13 02:02:09;;;;;;;55.00;29.30;;;;;;;0.76;78.17;100387.35;106303;1316;22626;-70
2021/11/13 02:04:37;;;;;;;51.80;28.00;;;;;;;0.70;78.17;100390.54;106216;1316;138349;-70
2021/11/13 02:07:06;;;;;;;52.00;28.80;;;;;;;0.66;78.38;100395.77;106302;1316;22489;-70
2021/11/13 02:09:34;;;;;;;54.20;28.00;;;;;;;0.63;78.39;100396.29;106041;1318;139042;-70
2021/11/13 02:12:22;;;;;;;49.50;27.40;;;;;;;0.57;78.14;100399.20;106361;1316;22553;-70
2021/11/13 02:14:50;;;;;;;49.40;26.50;;;;;;;0.51;78.06;100398.41;105995;1316;139373;-70
2021/11/13 02:17:18;;;;;;;52.30;26.90;;;;;;;0.46;78.01;100396.09;106336;1316;22523;-70
2021/11/13 02:19:50;;;;;;;48.00;26.20;;;;;;;0.41;77.82;100395.29;106296;1316;23274;-70
2021/11/13 02:22:18;;;;;;;49.30;27.10;;;;;;;0.36;77.60;100394.20;106049;1316;139262;-70
2021/11/13 02:24:47;;;;;;;51.40;27.10;;;;;;;0.32;77.64;100394.81;106342;1316;22499;-70
2021/11/13 02:27:15;;;;;;;45.80;25.70;;;;;;;0.28;77.43;100402.58;106220;1316;138697;-70
2021/11/13 02:29:43;;;;;;;42.40;24.60;;;;;;;0.25;77.45;100398.27;106323;1316;22436;-70
2021/11/13 02:32:13;;;;;;;50.80;26.30;;;;;;;0.21;77.44;100397.96;106341;1316;23208;-70
2021/11/13 02:34:42;;;;;;;53.80;26.90;;;;;;;0.18;77.22;100401.34;106171;1316;138593;-70
2021/11/13 02:37:10;;;;;;;45.70;25.70;;;;;;;0.17;77.40;100403.11;106323;1316;22438;-68
2021/11/13 02:39:39;;;;;;;48.30;26.00;;;;;;;0.15;77.19;100409.38;105951;1319;138205;-68
2021/11/13 02:42:08;;;;;;;57.20;25.60;;;;;;;0.13;77.52;100411.04;105559;1316;22276;-69
2021/11/13 02:44:36;;;;;;;49.20;27.70;;;;;;;0.09;77.34;100407.36;106144;1316;138715;-68
2021/11/13 02:47:06;;;;;;;49.90;24.80;;;;;;;0.08;77.77;100412.58;106090;1316;22476;-68
2021/11/13 02:49:34;;;;;;;51.60;25.70;;;;;;;0.06;77.69;100406.25;106345;1316;22677;-68
2021/11/13 02:52:05;;;;;;;46.20;25.50;;;;;;;0.05;77.62;100404.47;106086;1316;140194;-68
2021/11/13 02:54:33;;;;;;;48.80;25.50;;;;;;;0.02;77.89;100406.37;106279;1316;22507;-68
2021/11/13 02:57:01;;;;;;;51.90;26.60;;;;;;;0.00;77.87;100408.89;106223;1316;138636;-68
2021/11/13 02:59:29;;;;;;;54.70;26.60;;;;;;;-0.02;77.99;100409.31;106277;1316;22241;-68
2021/11/13 03:01:57;;;;;;;45.70;25.40;;;;;;;-0.04;78.40;100410.21;106287;1316;22649;-70
2021/11/13 03:04:26;;;;;;;46.70;24.50;;;;;;;-0.03;78.50;100408.58;106044;1316;231990;-70
2021/11/13 03:06:53;;;;;;;49.20;25.00;;;;;;;-0.05;78.25;100411.39;106312;1316;22476;-70
2021/11/13 03:09:21;;;;;;;47.90;24.40;;;;;;;-0.06;78.34;100413.29;106230;1316;138686;-70
2021/11/13 03:11:50;;;;;;;48.40;24.00;;;;;;;-0.07;78.21;100420.22;106290;1316;22434;-70
2021/11/13 03:14:19;;;;;;;49.40;24.70;;;;;;;-0.10;78.07;100422.63;106213;1316;139710;-70
2021/11/13 03:16:48;;;;;;;45.50;23.40;;;;;;;-0.13;77.87;100425.56;106316;1316;22447;-70
2021/11/13 03:19:17;;;;;;;43.50;24.40;;;;;;;-0.17;77.76;100421.03;106307;1316;22468;-70
2021/11/13 03:21:45;;;;;;;48.90;25.40;;;;;;;-0.22;77.87;100421.65;106215;1316;139526;-70
2021/11/13 03:24:14;;;;;;;46.60;23.30;;;;;;;-0.25;78.02;100425.79;105572;1316;23144;-69
2021/11/13 03:26:42;;;;;;;50.60;26.80;;;;;;;-0.26;78.31;100425.22;106090;1319;138806;-68
2021/11/13 03:29:22;;;;;;;51.90;25.80;;;;;;;-0.28;77.97;100433.34;106342;1321;22469;-68
2021/11/13 03:31:51;;;;;;;44.90;23.90;;;;;;;-0.30;78.32;100438.15;106108;1319;23245;-68
2021/11/13 03:34:19;;;;;;;46.90;22.40;;;;;;;-0.30;78.30;100443.88;106162;1316;138668;-68
2021/11/13 03:36:47;;;;;;;48.20;24.10;;;;;;;-0.33;78.24;100442.50;106280;1316;22530;-68
2021/11/13 03:39:15;;;;;;;43.40;25.10;;;;;;;-0.35;78.10;100441.09;105931;1316;139499;-67
2021/11/13 03:41:44;;;;;;;47.50;25.40;;;;;;;-0.38;78.03;100435.85;106216;1316;24443;-69
2021/11/13 03:44:12;;;;;;;45.60;25.40;;;;;;;-0.42;78.07;100429.42;106322;1316;23037;-68
2021/11/13 03:46:40;;;;;;;49.60;23.90;;;;;;;-0.42;78.26;100432.89;106203;1316;139053;-69
2021/11/13 03:49:08;;;;;;;47.50;25.60;;;;;;;-0.43;78.34;100429.68;106222;1316;22470;-69
2021/11/13 03:51:37;;;;;;;50.00;26.80;;;;;;;-0.44;78.37;100428.73;105762;1317;138937;-70
2021/11/13 03:54:05;;;;;;;53.40;27.20;;;;;;;-0.46;78.40;100428.55;106297;1316;22418;-70
2021/11/13 03:56:34;;;;;;;57.50;27.50;;;;;;;-0.46;78.32;100428.76;105203;1316;138595;-69
2021/11/13 03:59:05;;;;;;;56.20;28.20;;;;;;;-0.47;78.47;100429.19;106288;1316;22472;-69
2021/11/13 04:01:33;;;;;;;56.60;28.40;;;;;;;-0.48;78.66;100431.13;106327;1316;22443;-69
2021/11/13 04:04:02;;;;;;;50.10;27.30;;;;;;;-0.48;78.53;100429.16;106173;1316;139816;-69
2021/11/13 04:06:31;;;;;;;58.20;28.80;;;;;;;-0.49;78.59;100426.44;106266;1316;22425;-69
2021/11/13 04:09:00;;;;;;;50.40;26.00;;;;;;;-0.53;77.89;100429.19;105838;1316;140358;-69
2021/11/13 04:11:29;;;;;;;49.90;27.10;;;;;;;-0.55;78.26;100427.45;106271;1316;22476;-69
2021/11/13 04:13:57;;;;;;;55.40;28.70;;;;;;;-0.56;78.34;100429.62;106318;1316;22363;-69
2021/11/13 04:16:25;;;;;;;52.10;26.20;;;;;;;-0.56;78.17;100436.08;106193;1316;139948;-70
2021/11/13 04:18:54;;;;;;;50.00;28.20;;;;;;;-0.55;78.51;100434.52;106328;1316;23347;-69
2021/11/13 04:21:26;;;;;;;50.50;26.70;;;;;;;-0.54;78.25;100432.84;106190;1316;138501;-69
2021/11/13 04:23:55;;;;;;;48.10;26.10;;;;;;;-0.56;78.21;100436.78;106261;1316;22555;-69
2021/11/13 04:26:23;;;;;;;52.10;27.80;;;;;;;-0.61;77.82;100431.09;106204;1316;140026;-70
2021/11/13 04:28:51;;;;;;;52.00;27.40;;;;;;;-0.61;78.06;100436.15;106324;1316;23231;-70
2021/11/13 04:31:19;;;;;;;49.70;27.30;;;;;;;-0.62;78.08;100436.21;102549;1316;22556;-69
2021/11/13 04:33:48;;;;;;;52.60;27.10;;;;;;;-0.62;78.08;100440.16;101945;1316;140042;-69
2021/11/13 04:36:19;;;;;;;49.30;27.90;;;;;;;-0.63;77.98;100441.13;106200;1316;23309;-69
2021/11/13 04:38:48;;;;;;;50.90;26.60;;;;;;;-0.63;77.93;100442.16;106092;1316;139580;-69
2021/11/13 04:41:16;;;;;;;55.40;28.90;;;;;;;-0.64;77.79;100448.39;106311;1316;22446;-69
2021/11/13 04:43:45;;;;;;;56.60;30.90;;;;;;;-0.64;77.85;100449.59;106303;1315;22476;-69
2021/11/13 04:46:13;;;;;;;53.90;28.40;;;;;;;-0.66;77.83;100449.33;106106;1316;138565;-69
2021/11/13 04:48:42;;;;;;;53.90;26.70;;;;;;;-0.68;77.93;100451.78;106280;1316;22396;-69
2021/11/13 04:51:10;;;;;;;54.80;29.50;;;;;;;-0.66;78.12;100453.77;105507;1316;139444;-69
2021/11/13 04:53:40;;;;;;;53.90;28.90;;;;;;;-0.64;78.61;100454.77;106331;1313;23386;-69
2021/11/13 04:56:08;;;;;;;55.60;29.40;;;;;;;-0.60;78.87;100455.94;105966;1316;22744;-69
2021/11/13 04:58:37;;;;;;;52.20;27.30;;;;;;;-0.54;79.49;100459.04;105921;1316;138732;-68
2021/11/13 05:01:05;;;;;;;53.90;29.10;;;;;;;-0.49;79.71;100462.64;105196;1323;22458;-69
2021/11/13 05:03:34;;;;;;;60.90;30.10;;;;;;;-0.44;79.77;100466.67;106187;1316;139407;-69
2021/11/13 05:06:02;;;;;;;71.40;31.10;;;;;;;-0.36;80.55;100470.36;106340;1316;22454;-69
2021/11/13 05:08:34;;;;;;;89.00;37.20;;;;;;;-0.30;80.43;100471.86;106060;1316;140633;-68
2021/11/13 05:11:06;;;;;;;86.70;34.20;;;;;;;-0.21;81.18;100472.50;106081;1316;23331;-68
2021/11/13 05:13:34;;;;;;;85.60;34.90;;;;;;;-0.12;81.38;100466.27;106322;1316;22565;-68
2021/11/13 05:16:03;;;;;;;110.20;39.10;;;;;;;-0.04;81.64;100473.49;106179;1316;139654;-68
2021/11/13 05:18:31;;;;;;;93.70;35.90;;;;;;;0.01;82.05;100477.54;106297;1316;22502;-68
2021/11/13 05:20:59;;;;;;;78.40;33.80;;;;;;;0.05;81.52;100479.89;106191;1316;138484;-68
2021/11/13 05:23:29;;;;;;;74.60;36.30;;;;;;;0.04;81.18;100488.15;106247;1316;22270;-68
2021/11/13 05:25:57;;;;;;;72.60;34.20;;;;;;;0.03;81.37;100486.65;106295;1316;22449;-67
2021/11/13 05:28:26;;;;;;;80.00;33.20;;;;;;;0.07;81.45;100492.45;106135;1316;138693;-69
2021/11/13 05:30:54;;;;;;;66.70;32.70;;;;;;;0.09;81.36;100495.07;106313;1316;23340;-69
2021/11/13 05:33:25;;;;;;;72.00;32.40;;;;;;;0.10;81.30;100499.26;106193;1316;138783;-67
2021/11/13 05:35:57;;;;;;;72.40;32.80;;;;;;;0.09;80.80;100504.08;106254;1316;22470;-67
2021/11/13 05:38:25;;;;;;;85.10;36.20;;;;;;;0.09;80.81;100506.22;106088;1319;138744;-67
2021/11/13 05:40:53;;;;;;;96.70;38.70;;;;;;;0.10;81.08;100513.79;106183;1316;22587;-69
2021/11/13 05:43:21;;;;;;;82.70;38.30;;;;;;;0.10;80.72;100515.56;106162;1319;22465;-70
2021/11/13 05:45:49;;;;;;;80.20;38.60;;;;;;;0.09;80.70;100518.91;106187;1316;138543;-70
2021/11/13 05:48:18;;;;;;;72.40;35.30;;;;;;;0.05;80.39;100522.48;106290;1316;22545;-69
2021/11/13 05:50:46;;;;;;;76.40;34.60;;;;;;;0.03;80.24;100522.14;106172;1316;139245;-69
2021/11/13 05:53:14;;;;;;;83.50;34.70;;;;;;;0.02;80.21;100524.08;106210;1316;22489;-68
2021/11/13 05:55:42;;;;;;;72.30;35.50;;;;;;;0.01;80.31;100521.70;106300;1320;22588;-69
2021/11/13 05:58:14;;;;;;;70.80;34.00;;;;;;;0.01;80.13;100529.54;106222;1316;139078;-70
2021/11/13 06:00:43;;;;;;;74.40;34.80;;;;;;;0.03;80.50;100533.98;106240;1316;23345;-69
2021/11/13 06:03:11;;;;;;;76.60;37.00;;;;;;;0.06;80.75;100539.77;106147;1316;139424;-67
2021/11/13 06:05:40;;;;;;;110.40;51.00;;;;;;;0.11;81.09;100541.86;106309;1316;22502;-65
2021/11/13 06:08:09;;;;;;;133.60;61.60;;;;;;;0.18;81.13;100544.84;106214;1316;23333;-67
2021/11/13 06:10:38;;;;;;;114.80;55.00;;;;;;;0.26;81.63;100548.11;106157;1316;138194;-67
2021/11/13 06:13:27;;;;;;;105.40;51.30;;;;;;;0.32;81.56;100549.47;106279;1316;22495;-66
2021/11/13 06:15:55;;;;;;;120.50;59.70;;;;;;;0.37;81.71;100548.14;106069;1316;138843;-66
2021/11/13 06:18:24;;;;;;;151.20;65.40;;;;;;;0.42;82.03;100551.77;106179;1316;22500;-66
2021/11/13 06:20:53;;;;;;;243.20;91.60;;;;;;;0.48;82.15;100555.84;106172;1316;139061;-67
2021/11/13 06:23:22;;;;;;;238.40;92.40;;;;;;;0.55;82.53;100560.77;106273;1316;22385;-66
2021/11/13 06:25:50;;;;;;;189.20;75.00;;;;;;;0.61;82.62;100564.05;106267;1316;22496;-66
2021/11/13 06:28:18;;;;;;;158.90;68.10;;;;;;;0.68;82.71;100561.88;106100;1316;139819;-68
2021/11/13 06:30:46;;;;;;;159.40;67.70;;;;;;;0.75;82.71;100560.05;106238;1316;23369;-66
2021/11/13 06:33:14;;;;;;;190.70;75.50;;;;;;;0.83;83.04;100560.94;105460;1316;138945;-66
2021/11/13 06:35:44;;;;;;;176.30;73.90;;;;;;;0.92;83.48;100563.48;106156;1316;23509;-66
2021/11/13 06:38:12;;;;;;;168.20;66.10;;;;;;;1.02;83.44;100563.44;106289;1316;23476;-66
2021/11/13 06:40:40;;;;;;;156.20;61.90;;;;;;;1.12;83.86;100562.14;103221;1316;138441;-66
2021/11/13 06:43:09;;;;;;;145.00;61.90;;;;;;;1.22;83.94;100566.01;106283;1316;23572;-67
2021/11/13 06:45:39;;;;;;;132.80;58.00;;;;;;;1.31;84.24;100560.88;106201;1317;138587;-66
2021/11/13 06:48:07;;;;;;;135.00;57.40;;;;;;;1.43;84.40;100568.25;106185;1316;22513;-66
2021/11/13 06:50:36;;;;;;;130.40;58.60;;;;;;;1.52;84.45;100567.02;106201;1316;139848;-66
2021/11/13 06:53:04;;;;;;;98.80;53.30;;;;;;;1.62;84.53;100565.93;106257;1316;22489;-66
2021/11/13 06:55:32;;;;;;;107.70;52.20;;;;;;;1.74;84.84;100564.20;106184;1316;22465;-67
2021/11/13 06:58:00;;;;;;;111.80;56.80;;;;;;;1.87;84.82;100565.45;106180;1316;138706;-66
2021/11/13 07:00:29;;;;;;;133.70;65.70;;;;;;;1.98;85.10;100564.52;106255;1316;22578;-66
2021/11/13 07:03:00;;;;;;;131.60;64.90;;;;;;;2.09;85.25;100564.64;106179;1316;140917;-66
2021/11/13 07:07:11;;;;;;;113.50;58.00;;;;;;;2.27;85.30;100569.80;99428;1354;545599;-65
2021/11/13 07:09:40;;;;;;;115.40;57.00;;;;;;;2.35;85.31;100565.27;105250;1325;137718;-66
2021/11/13 07:12:10;;;;;;;100.90;51.80;;;;;;;2.46;85.40;100565.84;105235;1328;22473;-66
2021/11/13 07:14:38;;;;;;;96.70;51.10;;;;;;;2.57;85.44;100563.70;105084;1329;138683;-65
2021/11/13 07:17:07;;;;;;;86.90;46.10;;;;;;;2.66;85.47;100566.43;104971;1329;22543;-66
2021/11/13 07:19:36;;;;;;;83.80;44.70;;;;;;;2.77;85.50;100572.49;104964;1329;23063;-66
2021/11/13 07:22:04;;;;;;;88.70;46.50;;;;;;;2.87;85.61;100574.55;104365;1330;138472;-66
2021/11/13 07:24:34;;;;;;;91.40;48.60;;;;;;;2.96;85.58;100577.95;105230;1325;23214;-67
2021/11/13 07:27:02;;;;;;;86.80;50.50;;;;;;;3.06;85.49;100581.06;105200;1330;138429;-66
2021/11/13 07:29:37;;;;;;;86.50;49.00;;;;;;;3.15;85.42;100585.73;105281;1328;23234;-66
2021/11/13 07:32:05;;;;;;;81.40;45.40;;;;;;;3.23;85.30;100588.17;105228;1324;23220;-67
2021/11/13 07:34:34;;;;;;;93.00;47.60;;;;;;;3.30;85.21;100585.58;105082;1328;137899;-67
2021/11/13 07:37:02;;;;;;;84.80;46.60;;;;;;;3.36;85.27;100586.38;105117;1327;22471;-66
2021/11/13 07:39:30;;;;;;;114.00;56.90;;;;;;;3.43;85.23;100582.91;105052;1327;138360;-63
2021/11/13 07:41:59;;;;;;;82.80;48.90;;;;;;;3.50;84.94;100581.52;105184;1327;22420;-68
2021/11/13 07:44:27;;;;;;;72.80;43.30;;;;;;;3.59;85.12;100581.52;105074;1328;139041;-66
2021/11/13 07:46:55;;;;;;;79.80;45.00;;;;;;;3.66;85.05;100582.80;106079;1318;22484;-66
2021/11/13 07:49:23;;;;;;;83.10;43.90;;;;;;;3.74;85.12;100581.92;105470;1319;22418;-66
2021/11/13 07:51:51;;;;;;;71.40;41.90;;;;;;;3.82;84.94;100575.39;105942;1320;139079;-66
2021/11/13 07:54:20;;;;;;;81.70;45.30;;;;;;;3.90;84.87;100575.35;106037;1318;22472;-66
2021/11/13 07:56:48;;;;;;;78.80;47.20;;;;;;;3.98;84.93;100576.00;105919;1318;138137;-66
2021/11/13 07:59:16;;;;;;;88.90;47.30;;;;;;;4.05;84.77;100570.63;104792;1327;23112;-67
2021/11/13 08:01:44;;;;;;;78.70;44.60;;;;;;;4.11;84.71;100573.74;106026;1318;22592;-66
2021/11/13 08:04:12;;;;;;;82.30;45.90;;;;;;;4.16;84.55;100574.14;105970;1321;138194;-66
2021/11/13 08:06:42;;;;;;;92.70;46.80;;;;;;;4.23;84.31;100580.44;105933;1321;22544;-66
2021/11/13 08:09:10;;;;;;;99.60;49.50;;;;;;;4.32;84.49;100580.73;105186;1320;138233;-66
2021/11/13 08:11:39;;;;;;;96.80;49.90;;;;;;;4.38;84.14;100579.71;105957;1319;22418;-66
2021/11/13 08:14:07;;;;;;;100.40;50.60;;;;;;;4.46;84.04;100581.29;105929;1320;22387;-66
2021/11/13 08:16:55;;;;;;;;;;;;;;;4.54;83.81;100581.09;105880;1319;139652;-66
2021/11/13 08:19:23;;;;;;;101.80;50.90;;;;;;;4.60;83.78;100584.17;106185;1319;22461;-66
2021/11/13 08:21:51;;;;;;;111.70;56.50;;;;;;;4.65;83.60;100589.07;105799;1321;140930;-66
2021/11/13 08:24:20;;;;;;;74.40;43.40;;;;;;;4.72;83.50;100584.21;106059;1322;22537;-66
2021/11/13 08:26:55;;;;;;;79.20;41.00;;;;;;;4.76;83.13;100579.24;106200;1315;139878;-67
2021/11/13 08:29:26;;;;;;;85.20;43.10;;;;;;;4.82;82.90;100585.77;106212;1316;22469;-67
2021/11/13 08:31:55;;;;;;;83.90;44.20;;;;;;;4.87;82.97;100584.67;106226;1316;22470;-65
2021/11/13 08:34:23;;;;;;;83.20;42.70;;;;;;;4.92;82.53;100581.09;105892;1314;137981;-66
2021/11/13 08:36:51;;;;;;;85.00;43.10;;;;;;;4.97;82.26;100581.55;105805;1316;22565;-66
2021/11/13 08:39:20;;;;;;;80.70;42.50;;;;;;;5.01;82.24;100583.45;106144;1316;138395;-66
2021/11/13 08:41:48;;;;;;;73.60;42.80;;;;;;;5.09;81.92;100589.44;104331;1315;23055;-66
2021/11/13 08:44:23;;;;;;;67.30;37.70;;;;;;;5.17;82.01;100585.61;106255;1316;23296;-67
2021/11/13 08:46:51;;;;;;;59.30;31.20;;;;;;;5.26;81.92;100585.00;106272;1316;138015;-66
2021/11/13 08:49:24;;;;;;;56.50;30.80;;;;;;;5.35;81.55;100583.52;105809;1316;22620;-66
2021/11/13 08:51:53;;;;;;;64.50;32.50;;;;;;;5.43;81.48;100580.67;106315;1316;138382;-66
2021/11/13 08:54:21;;;;;;;59.20;31.60;;;;;;;5.52;81.14;100582.17;106368;1316;22456;-66
2021/11/13 08:56:49;;;;;;;67.80;37.70;;;;;;;5.61;80.84;100579.61;106183;1315;140322;-67
2021/11/13 08:59:18;;;;;;;60.90;30.60;;;;;;;5.69;80.78;100582.52;106286;1314;22649;-67
2021/11/13 09:01:46;;;;;;;55.20;27.50;;;;;;;5.77;80.46;100581.68;106258;1315;22472;-66
2021/11/13 09:04:14;;;;;;;37.10;20.80;;;;;;;5.84;80.02;100582.80;106116;1314;138668;-67
2021/11/13 09:06:56;;;;;;;34.60;20.00;;;;;;;5.91;79.78;100581.86;106354;1316;22475;-67
2021/11/13 09:09:24;;;;;;;36.70;19.80;;;;;;;5.96;78.89;100582.30;106261;1316;138991;-67
2021/11/13 09:12:21;;;;;;;38.90;22.40;;;;;;;6.01;78.95;100574.42;106327;1316;22512;-67
2021/11/13 09:14:50;;;;;;;;;;;;;;;6.04;78.10;100572.65;106272;1316;137901;-67
2021/11/13 09:17:20;;;;;;;32.70;18.00;;;;;;;6.06;77.37;100569.47;106363;1316;22377;-67
2021/11/13 09:19:54;;;;;;;36.90;21.70;;;;;;;6.07;76.47;100567.85;106418;1316;23189;-67
2021/11/13 09:22:23;;;;;;;41.90;21.10;;;;;;;6.06;76.23;100567.56;106264;1316;138109;-67
2021/11/13 09:24:53;;;;;;;38.30;21.20;;;;;;;6.06;76.27;100570.02;106360;1316;22636;-67
2021/11/13 09:27:21;;;;;;;35.90;21.20;;;;;;;6.09;76.40;100572.59;106280;1316;138831;-64
2021/11/13 09:29:51;;;;;;;34.60;19.60;;;;;;;6.13;76.09;100572.25;106159;1318;22492;-64
2021/11/13 09:32:19;;;;;;;39.20;23.10;;;;;;;6.17;75.98;100570.43;106360;1316;22754;-64
2021/11/13 09:34:48;;;;;;;36.50;21.80;;;;;;;6.21;75.79;100569.77;106260;1316;138083;-64
2021/11/13 09:37:16;;;;;;;37.30;22.70;;;;;;;6.25;75.59;100569.83;106319;1315;22476;-64
2021/11/13 09:39:44;;;;;;;39.90;21.60;;;;;;;6.28;75.25;100569.04;106309;1316;138246;-64
2021/11/13 09:42:14;;;;;;;35.10;23.50;;;;;;;6.30;75.29;100565.14;106346;1316;22630;-64
2021/11/13 09:44:42;;;;;;;43.10;24.60;;;;;;;6.35;75.21;100565.93;106119;1320;138067;-63
2021/11/13 09:47:12;;;;;;;38.30;24.60;;;;;;;6.37;74.60;100562.31;106331;1316;22469;-63
2021/11/13 09:49:40;;;;;;;38.70;23.30;;;;;;;6.41;75.08;100553.28;106298;1315;22468;-64
2021/11/13 09:52:08;;;;;;;39.30;22.30;;;;;;;6.47;74.75;100552.14;106293;1315;139508;-68
2021/11/13 09:54:36;;;;;;;37.80;22.50;;;;;;;6.52;74.62;100550.67;106342;1316;22472;-63
2021/11/13 09:57:05;;;;;;;37.10;21.50;;;;;;;6.56;74.24;100549.06;106116;1320;139435;-64
2021/11/13 09:59:33;;;;;;;39.00;20.80;;;;;;;6.59;73.92;100547.27;106354;1316;22511;-64
2021/11/13 10:02:04;;;;;;;38.90;20.80;;;;;;;6.57;73.63;100542.36;106382;1316;22483;-64
2021/11/13 10:04:32;;;;;;;35.60;19.10;;;;;;;6.63;73.25;100546.70;106269;1316;138928;-64
2021/11/13 10:07:00;;;;;;;36.20;19.80;;;;;;;6.65;73.15;100548.48;106399;1316;23102;-64
2021/11/13 10:09:28;;;;;;;35.60;21.70;;;;;;;6.69;72.98;100553.90;106262;1316;138392;-64
2021/11/13 10:12:03;;;;;;;38.30;21.00;;;;;;;6.71;72.72;100554.49;106388;1315;22456;-64
2021/11/13 10:14:33;;;;;;;38.00;20.90;;;;;;;6.75;72.77;100552.00;105929;1316;22583;-64
2021/11/13 10:17:23;;;;;;;40.90;21.80;;;;;;;6.80;72.50;100557.56;106366;1316;22583;-65
2021/11/13 10:19:52;;;;;;;37.90;22.10;;;;;;;6.85;72.37;100558.08;106367;1316;22496;-64
2021/11/13 10:22:21;;;;;;;37.60;21.60;;;;;;;6.89;72.06;100559.55;106247;1316;140255;-65
2021/11/13 10:24:58;;;;;;;34.90;19.60;;;;;;;6.90;71.57;100556.55;106346;1317;23598;-65
2021/11/13 10:27:26;;;;;;;39.60;21.30;;;;;;;6.91;72.00;100553.88;106291;1315;138904;-65
2021/11/13 10:29:54;;;;;;;42.30;22.80;;;;;;;6.92;71.69;100553.12;106262;1316;22592;-65
2021/11/13 10:32:22;;;;;;;40.90;24.70;;;;;;;6.96;71.36;100553.57;106379;1316;22495;-64
2021/11/13 10:34:54;;;;;;;36.50;20.40;;;;;;;6.99;71.24;100551.36;106255;1316;138542;-65
2021/11/13 10:37:24;;;;;;;37.40;21.90;;;;;;;7.01;71.36;100554.03;106302;1315;24953;-65
2021/11/13 10:39:56;;;;;;;39.30;21.90;;;;;;;7.05;71.49;100551.24;106303;1316;138357;-65
2021/11/13 10:42:25;;;;;;;42.30;22.70;;;;;;;7.09;70.99;100550.80;105564;1316;22508;-65
2021/11/13 10:44:55;;;;;;;34.80;21.70;;;;;;;7.12;70.70;100551.52;106334;1313;23077;-65
2021/11/13 10:47:32;;;;;;;42.90;23.50;;;;;;;7.15;70.49;100553.64;106254;1313;140744;-65
2021/11/13 10:50:17;;;;;;;48.50;26.00;;;;;;;7.17;70.27;100551.05;106396;1315;22645;-65
2021/11/13 10:53:01;;;;;;;48.60;25.10;;;;;;;7.19;71.08;100548.18;105576;1317;138869;-65
2021/11/13 10:55:29;;;;;;;45.40;25.70;;;;;;;7.22;70.71;100548.67;106278;1316;23473;-65
2021/11/13 10:58:25;;;;;;;48.10;27.90;;;;;;;7.25;70.68;100547.58;106234;1316;138855;-65
2021/11/13 11:00:56;;;;;;;53.10;27.80;;;;;;;7.28;71.10;100546.36;106379;1316;22527;-65
2021/11/13 11:03:36;;;;;;;45.60;26.00;;;;;;;7.32;70.97;100547.28;106122;1316;139357;-65
2021/11/13 11:06:05;;;;;;;44.00;25.60;;;;;;;7.35;70.77;100549.53;106335;1316;22424;-66
2021/11/13 11:08:35;;;;;;;42.40;25.80;;;;;;;7.39;70.47;100551.17;106393;1315;22369;-65
2021/11/13 11:11:36;;;;;;;46.80;25.70;;;;;;;7.43;70.55;100548.12;105339;1321;138029;-66
2021/11/13 11:14:12;;;;;;;73.90;37.50;;;;;;;7.45;70.39;100549.58;106111;1316;22425;-66
2021/11/13 11:16:42;;;;;;;56.20;30.30;;;;;;;7.46;69.77;100544.41;106297;1319;138537;-66
2021/11/13 11:19:18;;;;;;;46.80;26.30;;;;;;;7.47;69.69;100545.87;106391;1315;22454;-66